Timeline UpdatesTrip UpdatesNews PostsPvt PostsTravel TipsAdmin PostsConv PostsFollowed PostsChat RequestsBlog PostsPNR Posts

Disclaimer
Search
 
 
Thu Jul 31, 2014 06:50:05 ISTHomeTrainsΣChainsAtlasPNRForumGalleryNewsFAQTripsMembersLoginFeedback
No Recent News for this Train
Other Trains in the News **new
Latest...
Additional stoppage on Masudan MSDN) from 09/09/13 on wards at 2.12 to 2.13 am, on regular basis.
Sat Sep 07, 2013 (12:06PM)
⇐ Return Journey: Train# 53044

53043/Howrah-Rajgir Passenger (UnReserved)

Nov 04 2013 (6:56AM)
Change Departure Station:
Change Arrival Station:
Post a Train Travel TipPost a Train Travel Tip **new
Post a Comment/Question/Picture/VideoPost a Comment/Question/Picture/Video
Pantry/Catering
✕ NO Pantry Car
✕ NO Catering
RSA - Rake Sharing
Rake/Coach Composition
Loco
HWH WDM 3A/3D
News    PNR    Forum    Time-Table    Availability    Fare Chart    Map    Arr/Dep History    Trips    Gallery    ΣChains    X/O    Timeline    
Travel Time: 23h 45m    79 halts    Distance: 657 km    Avg Speed: 27 km/hr
Type: Passenger
Zone: ER/Eastern
Departs @ 11:10 (Avg 17m late)
Platform# 10
SMTWTFS
Kolkata Howrah Junction/HWH 
Arrives @ 10:55 +1 night (Avg 1h 40m late)
Platform# ???
SMTWTFS
Rajgir/RGD 

79 halts. 159 intermediate Stations between Kolkata Howrah Junction and Rajgir

Show ALL intermediate Stations  Show Old Time-Table

#CodeStation NameX/OArrivesAvgDepartsAvgHaltPFDay#KmSpeedElevZoneAddress
1HWH»Kolkata Howrah Junction (23)»  -11:10+171010.04510mERHowrah 711101, West Bengal
2SRPSerampore (4)X  11:36+3711:39+363m--119.73811mERdist - hooghly, West Bengal
3SHESeoraphuli Junction (6)  11:43+3711:45+382m--122.27113mERBaidyabati, West Bengal
4CGRChandan Nagar (3)X  11:54+4011:57+433m--132.86016mERDist -HOOGHLY - 712136, West Bengal
5CNSChuchura (3)X  12:00+2712:01+271m--135.82515mERDist - HOOGHLY - 712102, West Bengal
6BDCBandel Junction (7)X  12:10+4112:14+424m--139.67514mERdist - HOOGHLY, West Bengal
7PDAPundooah (3)  12:31+4712:32+481m--160.87418mERPandua, West Bengal
8MYMMemari (4)  12:49+5112:50+521m--181.85825mERMemari, West Bengal
9BWNBarddhaman Junction (8)X  13:16+4213:21+495m--1106.84934mERDist - Barddhaman, West Bengal
10KANKhana Junction (5)X  13:37+1:0813:38+1:081m11119.95142mERDist - Bardhaman, West Bengal
11JTLJhapater Dhal (4)  13:45+1:0913:46+1:111m--1125.83836mERDist - Bardhaman, West Bengal
12BPSBanpas (3)  13:52+1:1413:53+1:151m--1129.63746mERDist - Bardhaman, West Bengal
13NRXNoadar Dhal (2)  13:59+1:1614:00+1:201m--1133.35546mERdist - bardhaman, West Bengal
14GKHGuskara (2)  14:07+1:2014:12+1:165m21139.77441mERDist - Bardhaman, West Bengal
15PCQPichkurirdhal (3)X  14:17+1:1914:18+1:241m--1145.95738mERDist - Bardhaman, West Bengal
16BDHBhedia (2)X  14:23+1:2514:24+1:261m--1150.65341mERDist - Bardhaman, West Bengal
17BHPBolpur Shantiniketan (3)  14:33+1:1214:36+1:123m--1158.64259mERBolpur, West Bengal
18PNEPrantik (3)  14:42+1:2814:43+1:311m--1162.94748mERPrantik, West Bengal
19KPLEKopai (2)X  14:52+1:3214:53+1:371m--1169.96148mERDist - Birbhum, West Bengal
20AMPAhmadpur Junction (3)X  15:01+1:3915:02+1:401m--1178.15646mERDist - Birbhum, West Bengal
21BSLEBataspur (2)  15:08+1:4215:09+1:481m--1183.75154mERDist - Birbhum, West Bengal
22SNTSainthia Junction (4)X  15:18+1:5015:20+1:542m31191.38758mERDist - Birbhum, West Bengal
23GHLEGadadharpur (3)X  15:25+2:0215:26+2:021m11198.67152mERDist - Birbhum, West Bengal
24MLVMallarpur (3)  15:33+2:0415:34+2:051m--1206.95246mERDist - Birbhum, West Bengal
25TPFTarapith Road (2)X  15:40+1:5915:41+1:591m--1212.12245mERDist - Birbhum, West Bengal
26RPHRampurhat (3)  16:01+1:5616:08+1:587m--1219.35041mERDIST - Birbhum, West Bengal
27NHTNalhati Junction (4)X  16:25+2:1116:27+2:132m31233.48648mERNalhati, West Bengal
28CTRChatra (3)  16:33+2:1716:34+2:171m--1242.06542mERChatra, West Bengal
29MRRMurarai (3)  16:41+2:1816:42+2:221m--1249.61336mERMurarai, West Bengal
30BSBRBanshlai Bridge (2)XO  17:05+2:1917:06+2:191m--1254.61035mERState Highway 5, West Bengal
31RJGRajgram (3)  17:46+1:4617:48+1:452m31261.35232mERRajgram, West Bengal
32NGFNagarnabi (3)O  17:54+1:4517:56+1:472m31266.54630mERState Highway 5, Jharkhand
33PKRPakur (2)  18:03+1:3918:07+1:394m11271.95137mERDist:- Pakur, Jharkhand
34TBBTilbhita (3)  18:12+1:5018:13+1:531m--1276.14531mERTilbhita, Jharkhand
35KLPKotalpukur (3)X  18:23+1:5218:24+1:531m--1283.72240mERKotalpukur, Jharkhand
36GMANGumani (3)  18:42+1:4318:43+1:451m--1290.34431mERGumani, Jharkhand
37BHWBarharwa Junction (3)X  18:53+1:5118:58+1:545m11297.75336mERBarharwa, Jharkhand
38BKLEBakudi (3)  19:07+1:5719:08+1:581m--1305.65765mERBakudi, Jharkhand
39TPHTinpahar Junction (3)  19:17+2:1119:19+2:182m11314.28145mERBamangawan, Jharkhand
40KXEKalian Chak  19:24+2:2119:25+2:311m--1320.96545mERKalian Chak, Jharkhand
41TLJTaljhariX  19:30+2:3319:31+2:381m--1326.31338mERTaljhari, Jharkhand
42MJPMaharajpur (2)X  20:25+2:0720:32+2:107m--1338.24434mERMoharajpur, Jharkhand
43SLJSakrigali Junction (3)X  20:40+2:1420:46+2:186m--1344.13045mERSakrigali, Jharkhand
44SBGSahibganj Junction (3)X  21:02+2:0521:12+2:1510m21352.13538mERSahibganj, Jharkhand
45MZCMirza Cheuki (3)  21:38+2:2121:40+2:272m11367.23638mERBihar, Bihar
46PPTPirpainti (2)X  21:54+2:2522:02+2:268m--1375.73653mERBhagalpur, Bihar
47SVRPShivanarayanpur (2)X  22:17+2:2422:18+2:281m--1384.63847mERShivanarayanpur, Bihar
48CLGKahalgaon (2)O  22:36+2:2622:57+2:1721m21396.03744mERBhagalpur, Bihar
49EKCEkchari (1)  23:04+2:1823:05+2:191m11400.46937mERNational Highway 80, Bihar
50GGAGhoga (2)  23:10+2:2323:15+2:255m--1406.15842mERGhoga, Bihar
51LMMLailakh Mamalkha (2)  23:21+2:2923:22+2:311m--1411.94036mERLailakh Mamlkha, Bihar
52SBOSabaur (3)  23:32+2:3323:34+2:342m--1418.54542mERSabour, Bihar
53BGPBhagalpur Junction (6)X  23:44+2:0423:59+2:0415m--1426.12649mERBhagalpur, Bihar
54NATNathnagar (2)  00:10+2:3400:11+2:361m--2430.89948mERBhagalpur, Bihar
55AKNAkbarnagar (3)  00:19+2:3900:21+2:392m--2441.05039mERTilakpur, Bihar
56SGGSultanGanj (3)  00:33+2:3900:37+2:454m--2451.06042mERSultanganj, Bihar
57BUPBariarpur (3)  00:55+2:4900:57+2:522m--2469.01642mERMunger, Bihar
58JMPJamalpur Junction (4)X  01:38+2:1601:48+2:2310m--2480.14359mERJamalpur 06344-243101, Bihar
59DRTPDasharathpur  01:57+2:4801:59+2:472m--2486.56548mERDharhara, Bihar
60DRHDharhara (2)  02:04+2:5102:06+2:512m--2491.96055mERDharhara, Bihar
61MSDNMasudan  02:12+2:5202:13+2:521m--2497.94845mERMasudan, Bihar
62AHAAbhaipur  02:18+2:5202:19+2:541m--2501.910952mERAbhaipur, Bihar
63KJHKajra (2)X  02:23+2:5502:25+2:552m--2509.22550mERLakhisarai District, Bihar
64DNREDhanauri  02:48+2:4702:50+3:092m--2518.91848mERNational Highway 80, Bihar
65KIULKiul Junction (5)O  03:10+2:4803:38+2:4228m--2524.91053mECRDist. Lakhisarai, Bihar
66LKRLuckeesarai Junction (2)X  03:46+3:0703:48+3:082m--2526.35652mECRLakhisarai, Bihar
67MKBMankathaX  03:54+3:1003:55+3:151m--2531.93847mECRNational Highway 80, Bihar
68BRYABarhiya (3)XO  04:10+3:1804:12+3:212m--2541.3747mECRBarahiya, Bihar
69RDUMRampur Dumra (3)O  05:02+2:4605:04+2:452m--2546.91046mECRNational Highway 80, Bihar
70HTZHathidah Junction (2)O  05:27+2:2705:29+2:272m22550.72050mECRMusahari, Bihar
71MKAMokama Junction (3)X  05:54+2:1705:56+2:242m--2559.11148mECRPatna, Bihar
72MORMor  06:34+1:5706:36+1:562m--2566.32846mECRMor, Bihar
73PHKPunarakh  06:54+1:5306:55+1:551m--2574.64851mECRPunarakh, Bihar
74BARHBarh (3)X  07:08+1:5707:10+2:032m--2585.04249mECRBarh, Bihar
75ATLAthmal Gola (2)  07:23+2:0107:25+2:012m--2594.13652mECRPatna, Bihar
76BKPBakhtiyarpur Junction (5)O  07:40+2:1108:05+2:2925m--2603.26451mECRPatna, Bihar
77HRTHarnaut (3)  08:15+2:2208:16+2:281m--2613.94449mECRHarnaut, Bihar
78WENAWena (2)  08:23+2:3608:24+2:421m--2619.03147mECRWena, Bihar
79BEHSBihar Sharif (2)  08:51+2:3108:52+2:421m--2633.03456mECR06112-222306, Bihar
80NLDNalanda (2)X  09:14+2:3509:15+2:421m--2645.5763mECRNational Highway 82, Bihar
81RGD•Rajgir (3)•  10:55+1:40---2656.8-71mECRRajgir, Bihar
Scroll to Top
Scroll to Bottom